sensor_id;sensor_type;location;lat;lon;timestamp;pressure;altitude;pressure_sealevel;temperature;humidity
67803;BME280;54601;51.378;-1.342;2023-04-22T00:02:06;99456.19;;;18.69;29.11
67803;BME280;54601;51.378;-1.342;2023-04-22T00:04:31;99453.70;;;18.51;29.14
67803;BME280;54601;51.378;-1.342;2023-04-22T00:06:57;99450.69;;;18.62;29.11
67803;BME280;54601;51.378;-1.342;2023-04-22T00:09:22;99452.55;;;19.03;28.70
67803;BME280;54601;51.378;-1.342;2023-04-22T00:11:47;99451.98;;;18.60;29.14
67803;BME280;54601;51.378;-1.342;2023-04-22T00:14:12;99455.33;;;19.23;28.51
67803;BME280;54601;51.378;-1.342;2023-04-22T00:16:37;99455.07;;;19.35;28.45
67803;BME280;54601;51.378;-1.342;2023-04-22T00:19:03;99449.28;;;19.27;28.48
67803;BME280;54601;51.378;-1.342;2023-04-22T00:21:27;99444.24;;;19.43;28.29
67803;BME280;54601;51.378;-1.342;2023-04-22T00:23:53;99438.68;;;19.48;28.28
67803;BME280;54601;51.378;-1.342;2023-04-22T00:26:18;99440.39;;;18.73;28.74
67803;BME280;54601;51.378;-1.342;2023-04-22T00:28:43;99431.55;;;19.53;28.30
67803;BME280;54601;51.378;-1.342;2023-04-22T00:31:08;99424.81;;;19.75;27.97
67803;BME280;54601;51.378;-1.342;2023-04-22T00:33:33;99420.55;;;18.95;28.50
67803;BME280;54601;51.378;-1.342;2023-04-22T00:35:58;99418.89;;;19.68;28.05
67803;BME280;54601;51.378;-1.342;2023-04-22T00:38:23;99414.79;;;19.11;28.10
67803;BME280;54601;51.378;-1.342;2023-04-22T00:40:48;99411.12;;;19.12;28.56
67803;BME280;54601;51.378;-1.342;2023-04-22T00:43:15;99406.47;;;18.93;28.49
67803;BME280;54601;51.378;-1.342;2023-04-22T00:45:39;99401.48;;;19.29;28.22
67803;BME280;54601;51.378;-1.342;2023-04-22T00:48:04;99401.84;;;18.93;28.75
67803;BME280;54601;51.378;-1.342;2023-04-22T00:50:29;99398.64;;;18.96;28.53
67803;BME280;54601;51.378;-1.342;2023-04-22T00:52:54;99399.26;;;18.66;28.82
67803;BME280;54601;51.378;-1.342;2023-04-22T00:55:19;99389.04;;;18.57;28.66
67803;BME280;54601;51.378;-1.342;2023-04-22T00:57:45;99387.36;;;18.63;29.12
67803;BME280;54601;51.378;-1.342;2023-04-22T01:00:10;99380.50;;;18.20;29.61
67803;BME280;54601;51.378;-1.342;2023-04-22T01:02:36;99378.34;;;18.65;29.12
67803;BME280;54601;51.378;-1.342;2023-04-22T01:05:00;99373.58;;;18.69;29.17
67803;BME280;54601;51.378;-1.342;2023-04-22T01:07:25;99371.86;;;18.53;29.29
67803;BME280;54601;51.378;-1.342;2023-04-22T01:09:50;99371.50;;;18.65;29.14
67803;BME280;54601;51.378;-1.342;2023-04-22T01:12:15;99371.28;;;18.23;29.60
67803;BME280;54601;51.378;-1.342;2023-04-22T01:14:40;99365.66;;;17.97;29.62
67803;BME280;54601;51.378;-1.342;2023-04-22T01:17:05;99354.73;;;18.93;28.84
67803;BME280;54601;51.378;-1.342;2023-04-22T01:19:31;99358.70;;;18.04;29.81
67803;BME280;54601;51.378;-1.342;2023-04-22T01:21:57;99353.47;;;18.32;29.44
67803;BME280;54601;51.378;-1.342;2023-04-22T01:24:21;99349.20;;;18.84;28.76
67803;BME280;54601;51.378;-1.342;2023-04-22T01:26:47;99348.67;;;19.10;28.61
67803;BME280;54601;51.378;-1.342;2023-04-22T01:29:11;99350.84;;;18.86;28.82
67803;BME280;54601;51.378;-1.342;2023-04-22T01:31:37;99350.77;;;19.27;28.48
67803;BME280;54601;51.378;-1.342;2023-04-22T01:34:01;99344.52;;;18.71;28.97
67803;BME280;54601;51.378;-1.342;2023-04-22T01:36:27;99337.48;;;18.57;28.86
67803;BME280;54601;51.378;-1.342;2023-04-22T01:38:52;99336.82;;;18.86;28.58
67803;BME280;54601;51.378;-1.342;2023-04-22T01:41:17;99332.84;;;18.73;28.94
67803;BME280;54601;51.378;-1.342;2023-04-22T01:43:42;99334.73;;;18.55;29.11
67803;BME280;54601;51.378;-1.342;2023-04-22T01:46:08;99336.80;;;18.38;29.26
67803;BME280;54601;51.378;-1.342;2023-04-22T01:48:33;99338.56;;;18.59;28.85
67803;BME280;54601;51.378;-1.342;2023-04-22T01:50:57;99336.17;;;18.67;28.96
67803;BME280;54601;51.378;-1.342;2023-04-22T01:53:22;99336.38;;;18.95;28.63
67803;BME280;54601;51.378;-1.342;2023-04-22T01:55:48;99336.26;;;18.79;28.57
67803;BME280;54601;51.378;-1.342;2023-04-22T01:58:13;99336.72;;;18.60;28.73
67803;BME280;54601;51.378;-1.342;2023-04-22T02:00:38;99332.66;;;18.52;28.78
67803;BME280;54601;51.378;-1.342;2023-04-22T02:03:03;99331.78;;;17.99;29.07
67803;BME280;54601;51.378;-1.342;2023-04-22T02:05:28;99332.31;;;19.02;28.27
67803;BME280;54601;51.378;-1.342;2023-04-22T02:07:53;99327.09;;;19.69;27.81
67803;BME280;54601;51.378;-1.342;2023-04-22T02:10:19;99329.40;;;19.16;28.24
67803;BME280;54601;51.378;-1.342;2023-04-22T02:12:44;99329.99;;;19.45;28.03
67803;BME280;54601;51.378;-1.342;2023-04-22T02:15:10;99329.69;;;19.21;28.20
67803;BME280;54601;51.378;-1.342;2023-04-22T02:17:34;99330.55;;;18.80;28.60
67803;BME280;54601;51.378;-1.342;2023-04-22T02:19:59;99333.95;;;19.40;27.97
67803;BME280;54601;51.378;-1.342;2023-04-22T02:22:24;99332.36;;;19.14;27.74
67803;BME280;54601;51.378;-1.342;2023-04-22T02:24:49;99326.01;;;19.21;28.14
67803;BME280;54601;51.378;-1.342;2023-04-22T02:27:14;99322.91;;;18.85;28.53
67803;BME280;54601;51.378;-1.342;2023-04-22T02:29:40;99323.67;;;19.38;27.94
67803;BME280;54601;51.378;-1.342;2023-04-22T02:32:05;99320.01;;;18.78;28.47
67803;BME280;54601;51.378;-1.342;2023-04-22T02:34:30;99319.27;;;19.08;28.18
67803;BME280;54601;51.378;-1.342;2023-04-22T02:36:55;99321.03;;;19.16;28.11
67803;BME280;54601;51.378;-1.342;2023-04-22T02:39:20;99320.74;;;19.21;27.98
67803;BME280;54601;51.378;-1.342;2023-04-22T02:41:45;99317.62;;;19.40;27.78
67803;BME280;54601;51.378;-1.342;2023-04-22T02:44:10;99314.94;;;19.24;27.88
67803;BME280;54601;51.378;-1.342;2023-04-22T02:46:36;99310.63;;;18.25;28.63
67803;BME280;54601;51.378;-1.342;2023-04-22T02:49:01;99311.51;;;19.41;27.77
67803;BME280;54601;51.378;-1.342;2023-04-22T02:51:27;99308.41;;;18.80;28.04
67803;BME280;54601;51.378;-1.342;2023-04-22T02:53:51;99305.36;;;18.78;28.33
67803;BME280;54601;51.378;-1.342;2023-04-22T02:56:16;99299.70;;;18.44;28.36
67803;BME280;54601;51.378;-1.342;2023-04-22T02:58:41;99293.78;;;19.40;27.70
67803;BME280;54601;51.378;-1.342;2023-04-22T03:01:06;99293.86;;;19.53;27.45
67803;BME280;54601;51.378;-1.342;2023-04-22T03:03:31;99301.19;;;19.12;27.85
67803;BME280;54601;51.378;-1.342;2023-04-22T03:05:56;99299.48;;;19.09;27.94
67803;BME280;54601;51.378;-1.342;2023-04-22T03:08:22;99294.64;;;18.63;28.36
67803;BME280;54601;51.378;-1.342;2023-04-22T03:10:47;99288.33;;;18.64;28.31
67803;BME280;54601;51.378;-1.342;2023-04-22T03:13:12;99282.53;;;17.90;28.79
67803;BME280;54601;51.378;-1.342;2023-04-22T03:15:39;99275.12;;;18.15;28.80
67803;BME280;54601;51.378;-1.342;2023-04-22T03:18:02;99268.49;;;18.00;28.92
67803;BME280;54601;51.378;-1.342;2023-04-22T03:20:27;99260.85;;;18.37;28.83
67803;BME280;54601;51.378;-1.342;2023-04-22T03:22:52;99262.29;;;18.11;28.79
67803;BME280;54601;51.378;-1.342;2023-04-22T03:25:18;99265.36;;;17.80;29.07
67803;BME280;54601;51.378;-1.342;2023-04-22T03:27:43;99271.19;;;17.72;28.90
67803;BME280;54601;51.378;-1.342;2023-04-22T03:30:08;99274.20;;;18.18;28.67
67803;BME280;54601;51.378;-1.342;2023-04-22T03:32:33;99269.50;;;17.80;28.77
67803;BME280;54601;51.378;-1.342;2023-04-22T03:34:58;99266.25;;;17.81;28.98
67803;BME280;54601;51.378;-1.342;2023-04-22T03:37:23;99269.79;;;18.21;28.58
67803;BME280;54601;51.378;-1.342;2023-04-22T03:39:48;99269.60;;;18.04;28.69
67803;BME280;54601;51.378;-1.342;2023-04-22T03:42:14;99266.09;;;18.13;28.67
67803;BME280;54601;51.378;-1.342;2023-04-22T03:44:39;99261.91;;;18.02;28.69
67803;BME280;54601;51.378;-1.342;2023-04-22T03:47:04;99262.45;;;18.03;28.65
67803;BME280;54601;51.378;-1.342;2023-04-22T03:49:29;99258.15;;;17.85;28.77
67803;BME280;54601;51.378;-1.342;2023-04-22T03:51:54;99256.25;;;17.78;28.85
67803;BME280;54601;51.378;-1.342;2023-04-22T03:54:19;99254.55;;;17.61;28.79
67803;BME280;54601;51.378;-1.342;2023-04-22T03:56:44;99249.12;;;17.75;28.85
67803;BME280;54601;51.378;-1.342;2023-04-22T03:59:09;99244.68;;;17.78;28.77
67803;BME280;54601;51.378;-1.342;2023-04-22T04:01:35;99241.26;;;17.83;28.70
67803;BME280;54601;51.378;-1.342;2023-04-22T04:04:00;99241.69;;;17.59;28.96
67803;BME280;54601;51.378;-1.342;2023-04-22T04:06:25;99239.60;;;17.94;28.62
67803;BME280;54601;51.378;-1.342;2023-04-22T04:08:50;99238.78;;;17.98;28.54
67803;BME280;54601;51.378;-1.342;2023-04-22T04:11:15;99236.74;;;18.05;28.41
67803;BME280;54601;51.378;-1.342;2023-04-22T04:13:40;99235.21;;;17.72;28.71
67803;BME280;54601;51.378;-1.342;2023-04-22T04:16:06;99232.28;;;17.84;28.61
67803;BME280;54601;51.378;-1.342;2023-04-22T04:18:31;99233.36;;;18.16;28.27
67803;BME280;54601;51.378;-1.342;2023-04-22T04:20:56;99228.64;;;17.61;28.74
67803;BME280;54601;51.378;-1.342;2023-04-22T04:23:21;99226.87;;;17.64;28.75
67803;BME280;54601;51.378;-1.342;2023-04-22T04:25:46;99227.55;;;17.66;28.74
67803;BME280;54601;51.378;-1.342;2023-04-22T04:28:12;99230.48;;;17.75;28.66
67803;BME280;54601;51.378;-1.342;2023-04-22T04:30:37;99230.74;;;17.83;28.55
67803;BME280;54601;51.378;-1.342;2023-04-22T04:33:02;99231.63;;;17.85;28.57
67803;BME280;54601;51.378;-1.342;2023-04-22T04:35:27;99227.73;;;17.54;28.84
67803;BME280;54601;51.378;-1.342;2023-04-22T04:37:52;99223.97;;;17.54;28.84
67803;BME280;54601;51.378;-1.342;2023-04-22T04:40:17;99223.97;;;17.56;28.82
67803;BME280;54601;51.378;-1.342;2023-04-22T04:42:42;99226.58;;;17.94;28.72
67803;BME280;54601;51.378;-1.342;2023-04-22T04:45:08;99227.27;;;17.72;28.69
67803;BME280;54601;51.378;-1.342;2023-04-22T04:47:33;99228.40;;;17.80;28.58
67803;BME280;54601;51.378;-1.342;2023-04-22T04:49:58;99227.34;;;17.49;28.87
67803;BME280;54601;51.378;-1.342;2023-04-22T04:52:23;99223.72;;;17.88;28.55
67803;BME280;54601;51.378;-1.342;2023-04-22T04:54:48;99224.59;;;18.50;27.94
67803;BME280;54601;51.378;-1.342;2023-04-22T04:57:13;99224.80;;;17.96;28.41
67803;BME280;54601;51.378;-1.342;2023-04-22T04:59:38;99218.47;;;17.74;28.61
67803;BME280;54601;51.378;-1.342;2023-04-22T05:02:03;99216.48;;;18.39;28.48
67803;BME280;54601;51.378;-1.342;2023-04-22T05:04:29;99215.09;;;17.76;28.63
67803;BME280;54601;51.378;-1.342;2023-04-22T05:06:54;99211.30;;;17.69;28.66
67803;BME280;54601;51.378;-1.342;2023-04-22T05:09:19;99215.44;;;17.77;28.41
67803;BME280;54601;51.378;-1.342;2023-04-22T05:11:44;99213.40;;;17.66;28.76
67803;BME280;54601;51.378;-1.342;2023-04-22T05:14:09;99214.97;;;18.12;28.27
67803;BME280;54601;51.378;-1.342;2023-04-22T05:16:35;99210.70;;;18.21;28.18
67803;BME280;54601;51.378;-1.342;2023-04-22T05:19:00;99210.83;;;18.21;28.22
67803;BME280;54601;51.378;-1.342;2023-04-22T05:21:25;99210.54;;;18.13;28.28
67803;BME280;54601;51.378;-1.342;2023-04-22T05:23:50;99208.44;;;18.08;28.32
67803;BME280;54601;51.378;-1.342;2023-04-22T05:26:15;99206.20;;;17.86;28.55
67803;BME280;54601;51.378;-1.342;2023-04-22T05:28:40;99203.49;;;18.33;28.05
67803;BME280;54601;51.378;-1.342;2023-04-22T05:31:05;99201.01;;;18.52;28.12
67803;BME280;54601;51.378;-1.342;2023-04-22T05:33:30;99203.24;;;17.88;28.57
67803;BME280;54601;51.378;-1.342;2023-04-22T05:35:56;99210.02;;;17.77;28.46
67803;BME280;54601;51.378;-1.342;2023-04-22T05:38:21;99217.90;;;18.32;28.10
67803;BME280;54601;51.378;-1.342;2023-04-22T05:40:46;99222.01;;;18.04;28.37
67803;BME280;54601;51.378;-1.342;2023-04-22T05:43:11;99220.64;;;17.92;28.53
67803;BME280;54601;51.378;-1.342;2023-04-22T05:45:36;99218.87;;;17.98;28.50
67803;BME280;54601;51.378;-1.342;2023-04-22T05:48:01;99217.56;;;18.06;28.40
67803;BME280;54601;51.378;-1.342;2023-04-22T05:50:27;99220.85;;;18.43;28.08
67803;BME280;54601;51.378;-1.342;2023-04-22T05:52:52;99226.20;;;18.24;28.52
67803;BME280;54601;51.378;-1.342;2023-04-22T05:55:17;99230.70;;;18.28;28.28
67803;BME280;54601;51.378;-1.342;2023-04-22T05:57:42;99229.92;;;18.03;28.49
67803;BME280;54601;51.378;-1.342;2023-04-22T06:00:08;99219.95;;;17.90;28.64
67803;BME280;54601;51.378;-1.342;2023-04-22T06:02:32;99211.79;;;18.26;28.28
67803;BME280;54601;51.378;-1.342;2023-04-22T06:04:57;99202.36;;;17.68;28.93
67803;BME280;54601;51.378;-1.342;2023-04-22T06:07:22;99203.43;;;17.73;28.94
67803;BME280;54601;51.378;-1.342;2023-04-22T06:09:48;99210.83;;;17.49;29.15
67803;BME280;54601;51.378;-1.342;2023-04-22T06:12:13;99213.31;;;18.09;28.58
67803;BME280;54601;51.378;-1.342;2023-04-22T06:14:38;99214.53;;;17.40;29.27
67803;BME280;54601;51.378;-1.342;2023-04-22T06:17:03;99213.70;;;17.43;29.29
67803;BME280;54601;51.378;-1.342;2023-04-22T06:19:28;99212.87;;;17.67;29.08
67803;BME280;54601;51.378;-1.342;2023-04-22T06:21:53;99207.13;;;17.50;29.27
67803;BME280;54601;51.378;-1.342;2023-04-22T06:24:19;99198.47;;;17.51;29.25
67803;BME280;54601;51.378;-1.342;2023-04-22T06:26:44;99189.14;;;17.43;29.33
67803;BME280;54601;51.378;-1.342;2023-04-22T06:29:09;99180.28;;;17.29;29.53
67803;BME280;54601;51.378;-1.342;2023-04-22T06:31:34;99180.53;;;17.69;29.11
67803;BME280;54601;51.378;-1.342;2023-04-22T06:33:59;99181.12;;;17.48;29.40
67803;BME280;54601;51.378;-1.342;2023-04-22T06:36:25;99183.83;;;17.48;29.36
67803;BME280;54601;51.378;-1.342;2023-04-22T06:38:49;99190.69;;;17.60;29.32
67803;BME280;54601;51.378;-1.342;2023-04-22T06:41:15;99201.89;;;17.17;29.81
67803;BME280;54601;51.378;-1.342;2023-04-22T06:43:40;99199.51;;;17.51;29.43
67803;BME280;54601;51.378;-1.342;2023-04-22T06:46:05;99197.13;;;17.59;29.42
67803;BME280;54601;51.378;-1.342;2023-04-22T06:48:30;99199.30;;;16.96;30.18
67803;BME280;54601;51.378;-1.342;2023-04-22T06:50:55;99203.52;;;17.32;30.43
67803;BME280;54601;51.378;-1.342;2023-04-22T06:53:20;99205.86;;;16.92;30.39
67803;BME280;54601;51.378;-1.342;2023-04-22T06:55:45;99205.61;;;16.88;30.56
67803;BME280;54601;51.378;-1.342;2023-04-22T06:58:11;99204.77;;;17.22;30.42
67803;BME280;54601;51.378;-1.342;2023-04-22T07:00:36;99208.53;;;16.80;30.84
67803;BME280;54601;51.378;-1.342;2023-04-22T07:03:01;99215.19;;;17.24;30.39
67803;BME280;54601;51.378;-1.342;2023-04-22T07:05:27;99213.36;;;16.90;30.54
67803;BME280;54601;51.378;-1.342;2023-04-22T07:07:51;99205.72;;;18.01;29.99
67803;BME280;54601;51.378;-1.342;2023-04-22T07:10:16;99213.68;;;17.06;30.54
67803;BME280;54601;51.378;-1.342;2023-04-22T07:12:41;99208.26;;;17.59;30.01
67803;BME280;54601;51.378;-1.342;2023-04-22T07:15:07;99206.14;;;17.53;29.87
67803;BME280;54601;51.378;-1.342;2023-04-22T07:17:32;99201.01;;;17.81;29.83
67803;BME280;54601;51.378;-1.342;2023-04-22T07:19:57;99200.87;;;18.13;29.65
67803;BME280;54601;51.378;-1.342;2023-04-22T07:22:22;99199.31;;;18.08;29.51
67803;BME280;54601;51.378;-1.342;2023-04-22T07:24:47;99202.31;;;17.91;29.85
67803;BME280;54601;51.378;-1.342;2023-04-22T07:27:12;99206.31;;;17.89;29.92
67803;BME280;54601;51.378;-1.342;2023-04-22T07:29:37;99209.59;;;18.38;29.52
67803;BME280;54601;51.378;-1.342;2023-04-22T07:32:02;99205.92;;;18.56;29.32
67803;BME280;54601;51.378;-1.342;2023-04-22T07:34:27;99203.31;;;18.34;29.37
67803;BME280;54601;51.378;-1.342;2023-04-22T07:36:52;99205.28;;;18.26;29.54
67803;BME280;54601;51.378;-1.342;2023-04-22T07:39:17;99208.14;;;17.97;30.08
67803;BME280;54601;51.378;-1.342;2023-04-22T07:41:42;99206.59;;;18.17;30.02
67803;BME280;54601;51.378;-1.342;2023-04-22T07:44:07;99208.78;;;18.13;30.39
67803;BME280;54601;51.378;-1.342;2023-04-22T07:46:33;99206.54;;;18.26;30.29
67803;BME280;54601;51.378;-1.342;2023-04-22T07:48:58;99209.51;;;18.38;30.13
67803;BME280;54601;51.378;-1.342;2023-04-22T07:51:23;99207.93;;;17.90;30.11
67803;BME280;54601;51.378;-1.342;2023-04-22T07:53:48;99205.91;;;18.48;30.08
67803;BME280;54601;51.378;-1.342;2023-04-22T07:56:13;99208.94;;;18.02;30.28
67803;BME280;54601;51.378;-1.342;2023-04-22T07:58:38;99207.98;;;18.19;30.35
67803;BME280;54601;51.378;-1.342;2023-04-22T08:01:03;99206.38;;;18.25;30.32
67803;BME280;54601;51.378;-1.342;2023-04-22T08:03:28;99205.87;;;18.64;29.98
67803;BME280;54601;51.378;-1.342;2023-04-22T08:05:53;99205.16;;;18.11;30.11
67803;BME280;54601;51.378;-1.342;2023-04-22T08:08:18;99208.63;;;18.08;30.52
67803;BME280;54601;51.378;-1.342;2023-04-22T08:10:43;99208.82;;;18.13;30.73
67803;BME280;54601;51.378;-1.342;2023-04-22T08:13:08;99205.33;;;17.77;30.94
67803;BME280;54601;51.378;-1.342;2023-04-22T08:15:33;99204.33;;;18.40;30.59
67803;BME280;54601;51.378;-1.342;2023-04-22T08:17:58;99203.82;;;18.70;30.10
67803;BME280;54601;51.378;-1.342;2023-04-22T08:20:23;99202.12;;;18.65;29.97
67803;BME280;54601;51.378;-1.342;2023-04-22T08:22:48;99197.58;;;18.13;30.60
67803;BME280;54601;51.378;-1.342;2023-04-22T08:25:14;99191.32;;;18.21;30.29
67803;BME280;54601;51.378;-1.342;2023-04-22T08:27:38;99193.62;;;18.20;30.57
67803;BME280;54601;51.378;-1.342;2023-04-22T08:30:05;99194.48;;;18.18;30.36
67803;BME280;54601;51.378;-1.342;2023-04-22T08:32:29;99190.75;;;18.65;29.87
67803;BME280;54601;51.378;-1.342;2023-04-22T08:34:54;99189.61;;;18.27;30.28
67803;BME280;54601;51.378;-1.342;2023-04-22T08:37:19;99186.91;;;18.46;30.11
67803;BME280;54601;51.378;-1.342;2023-04-22T08:39:44;99184.00;;;18.51;30.35
67803;BME280;54601;51.378;-1.342;2023-04-22T08:42:09;99181.58;;;18.37;30.28
67803;BME280;54601;51.378;-1.342;2023-04-22T08:44:34;99178.11;;;18.52;30.09
67803;BME280;54601;51.378;-1.342;2023-04-22T08:46:59;99175.59;;;18.13;30.31
67803;BME280;54601;51.378;-1.342;2023-04-22T08:49:25;99173.47;;;18.56;30.12
67803;BME280;54601;51.378;-1.342;2023-04-22T08:51:49;99172.24;;;18.49;30.16
67803;BME280;54601;51.378;-1.342;2023-04-22T08:54:14;99169.27;;;18.80;30.38
67803;BME280;54601;51.378;-1.342;2023-04-22T08:56:40;99167.25;;;18.27;30.43
67803;BME280;54601;51.378;-1.342;2023-04-22T08:59:04;99168.54;;;18.43;30.28
67803;BME280;54601;51.378;-1.342;2023-04-22T09:01:30;99169.03;;;18.66;30.36
67803;BME280;54601;51.378;-1.342;2023-04-22T09:03:55;99165.60;;;18.32;30.44
67803;BME280;54601;51.378;-1.342;2023-04-22T09:06:20;99165.94;;;18.54;30.21
67803;BME280;54601;51.378;-1.342;2023-04-22T09:08:45;99169.73;;;18.52;30.22
67803;BME280;54601;51.378;-1.342;2023-04-22T09:11:09;99169.53;;;18.46;30.29
67803;BME280;54601;51.378;-1.342;2023-04-22T09:13:34;99169.42;;;18.26;30.52
67803;BME280;54601;51.378;-1.342;2023-04-22T09:15:59;99165.95;;;18.37;30.45
67803;BME280;54601;51.378;-1.342;2023-04-22T09:18:24;99166.25;;;18.40;30.42
67803;BME280;54601;51.378;-1.342;2023-04-22T09:20:54;99164.47;;;18.91;30.17
67803;BME280;54601;51.378;-1.342;2023-04-22T09:23:14;99167.37;;;18.62;30.56
67803;BME280;54601;51.378;-1.342;2023-04-22T09:25:40;99168.12;;;18.44;30.46
67803;BME280;54601;51.378;-1.342;2023-04-22T09:28:04;99164.30;;;18.84;30.35
67803;BME280;54601;51.378;-1.342;2023-04-22T09:30:31;99164.43;;;18.38;30.58
67803;BME280;54601;51.378;-1.342;2023-04-22T09:32:56;99165.45;;;18.76;30.45
67803;BME280;54601;51.378;-1.342;2023-04-22T09:35:26;99165.01;;;18.62;30.33
67803;BME280;54601;51.378;-1.342;2023-04-22T09:37:50;99165.40;;;18.56;30.39
67803;BME280;54601;51.378;-1.342;2023-04-22T09:40:14;99164.02;;;18.74;30.48
67803;BME280;54601;51.378;-1.342;2023-04-22T09:45:00;99158.59;;;18.64;30.36
67803;BME280;54601;51.378;-1.342;2023-04-22T09:47:25;99157.16;;;18.68;30.32
67803;BME280;54601;51.378;-1.342;2023-04-22T09:49:50;99153.14;;;18.74;30.29
67803;BME280;54601;51.378;-1.342;2023-04-22T09:52:20;99152.88;;;18.68;30.43
67803;BME280;54601;51.378;-1.342;2023-04-22T09:54:47;99151.25;;;18.50;30.62
67803;BME280;54601;51.378;-1.342;2023-04-22T09:57:09;99153.24;;;18.51;30.59
67803;BME280;54601;51.378;-1.342;2023-04-22T09:59:30;99156.39;;;18.41;30.74
67803;BME280;54601;51.378;-1.342;2023-04-22T10:01:56;99155.30;;;18.85;30.50
67803;BME280;54601;51.378;-1.342;2023-04-22T10:04:20;99154.38;;;18.72;30.38
67803;BME280;54601;51.378;-1.342;2023-04-22T10:06:45;99154.43;;;18.81;30.26
67803;BME280;54601;51.378;-1.342;2023-04-22T10:09:10;99154.78;;;18.52;30.57
67803;BME280;54601;51.378;-1.342;2023-04-22T10:11:35;99155.61;;;18.67;30.37
67803;BME280;54601;51.378;-1.342;2023-04-22T10:14:00;99155.13;;;18.66;30.41
67803;BME280;54601;51.378;-1.342;2023-04-22T10:16:27;99157.38;;;18.74;30.33
67803;BME280;54601;51.378;-1.342;2023-04-22T10:18:51;99160.61;;;18.83;30.21
67803;BME280;54601;51.378;-1.342;2023-04-22T10:21:16;99159.50;;;18.76;30.28
67803;BME280;54601;51.378;-1.342;2023-04-22T10:23:45;99158.20;;;18.67;30.43
67803;BME280;54601;51.378;-1.342;2023-04-22T10:26:05;99156.84;;;18.63;30.24
67803;BME280;54601;51.378;-1.342;2023-04-22T10:28:31;99157.54;;;19.00;30.08
67803;BME280;54601;51.378;-1.342;2023-04-22T10:30:55;99159.80;;;18.44;30.66
67803;BME280;54601;51.378;-1.342;2023-04-22T10:38:10;99150.88;;;18.79;30.29
67803;BME280;54601;51.378;-1.342;2023-04-22T10:40:35;99151.38;;;18.65;30.47
67803;BME280;54601;51.378;-1.342;2023-04-22T10:43:00;99150.75;;;18.68;30.47
67803;BME280;54601;51.378;-1.342;2023-04-22T10:45:25;99150.46;;;18.69;30.45
67803;BME280;54601;51.378;-1.342;2023-04-22T10:47:50;99152.02;;;18.74;30.41
67803;BME280;54601;51.378;-1.342;2023-04-22T10:50:19;99152.05;;;18.70;30.47
67803;BME280;54601;51.378;-1.342;2023-04-22T10:52:42;99154.86;;;18.47;30.76
67803;BME280;54601;51.378;-1.342;2023-04-22T10:55:06;99154.04;;;18.50;31.04
67803;BME280;54601;51.378;-1.342;2023-04-22T10:57:35;99146.82;;;18.53;30.78
67803;BME280;54601;51.378;-1.342;2023-04-22T10:59:57;99149.20;;;18.29;31.03
67803;BME280;54601;51.378;-1.342;2023-04-22T11:02:21;99147.28;;;18.33;31.04
67803;BME280;54601;51.378;-1.342;2023-04-22T11:04:46;99147.21;;;18.41;30.93
67803;BME280;54601;51.378;-1.342;2023-04-22T11:07:12;99147.37;;;18.36;30.99
67803;BME280;54601;51.378;-1.342;2023-04-22T11:09:38;99153.17;;;18.38;31.02
67803;BME280;54601;51.378;-1.342;2023-04-22T11:14:26;99159.05;;;18.51;30.80
67803;BME280;54601;51.378;-1.342;2023-04-22T11:16:51;99155.63;;;18.39;30.95
67803;BME280;54601;51.378;-1.342;2023-04-22T11:19:17;99160.70;;;18.44;30.86
67803;BME280;54601;51.378;-1.342;2023-04-22T11:21:42;99159.96;;;18.35;30.78
67803;BME280;54601;51.378;-1.342;2023-04-22T11:24:08;99161.19;;;18.81;30.51
67803;BME280;54601;51.378;-1.342;2023-04-22T11:26:34;99160.18;;;18.83;30.48
67803;BME280;54601;51.378;-1.342;2023-04-22T11:28:59;99156.17;;;18.95;30.34
67803;BME280;54601;51.378;-1.342;2023-04-22T11:31:24;99162.89;;;18.68;30.36
67803;BME280;54601;51.378;-1.342;2023-04-22T11:33:49;99159.75;;;18.67;30.59
67803;BME280;54601;51.378;-1.342;2023-04-22T11:36:15;99154.54;;;18.61;30.67
67803;BME280;54601;51.378;-1.342;2023-04-22T11:38:41;99159.05;;;18.50;30.74
67803;BME280;54601;51.378;-1.342;2023-04-22T11:41:07;99158.72;;;18.42;30.88
67803;BME280;54601;51.378;-1.342;2023-04-22T11:43:33;99156.96;;;18.60;30.73
67803;BME280;54601;51.378;-1.342;2023-04-22T11:45:59;99156.43;;;18.19;30.94
67803;BME280;54601;51.378;-1.342;2023-04-22T11:48:25;99157.39;;;18.41;30.98
67803;BME280;54601;51.378;-1.342;2023-04-22T11:53:18;99151.66;;;18.59;30.78
67803;BME280;54601;51.378;-1.342;2023-04-22T11:55:45;99150.41;;;18.50;30.88
67803;BME280;54601;51.378;-1.342;2023-04-22T11:58:10;99147.63;;;18.64;30.66
67803;BME280;54601;51.378;-1.342;2023-04-22T12:00:37;99154.33;;;18.52;30.78
67803;BME280;54601;51.378;-1.342;2023-04-22T12:03:02;99155.86;;;18.51;30.82
67803;BME280;54601;51.378;-1.342;2023-04-22T12:05:33;99153.60;;;18.74;30.52
67803;BME280;54601;51.378;-1.342;2023-04-22T12:07:52;99156.50;;;18.78;30.50
67803;BME280;54601;51.378;-1.342;2023-04-22T12:10:17;99153.21;;;18.58;30.72
67803;BME280;54601;51.378;-1.342;2023-04-22T12:12:42;99153.49;;;18.82;30.47
67803;BME280;54601;51.378;-1.342;2023-04-22T12:15:09;99156.36;;;19.10;30.14
67803;BME280;54601;51.378;-1.342;2023-04-22T12:17:33;99158.25;;;18.96;30.04
67803;BME280;54601;51.378;-1.342;2023-04-22T12:19:58;99159.39;;;18.98;30.21
67803;BME280;54601;51.378;-1.342;2023-04-22T12:22:24;99159.92;;;19.16;30.05
67803;BME280;54601;51.378;-1.342;2023-04-22T12:24:49;99159.19;;;19.07;30.14
67803;BME280;54601;51.378;-1.342;2023-04-22T12:27:15;99160.24;;;18.76;30.41
67803;BME280;54601;51.378;-1.342;2023-04-22T12:29:49;99165.56;;;19.00;30.22
67803;BME280;54601;51.378;-1.342;2023-04-22T12:32:07;99165.22;;;19.14;30.02
67803;BME280;54601;51.378;-1.342;2023-04-22T12:34:32;99168.89;;;19.16;30.04
67803;BME280;54601;51.378;-1.342;2023-04-22T12:36:58;99165.21;;;18.77;30.39
67803;BME280;54601;51.378;-1.342;2023-04-22T12:39:22;99171.61;;;19.11;30.04
67803;BME280;54601;51.378;-1.342;2023-04-22T12:41:47;99171.29;;;18.99;30.14
67803;BME280;54601;51.378;-1.342;2023-04-22T12:44:13;99174.48;;;19.13;29.97
67803;BME280;54601;51.378;-1.342;2023-04-22T12:46:38;99176.57;;;19.11;29.99
67803;BME280;54601;51.378;-1.342;2023-04-22T12:49:03;99178.40;;;18.73;29.90
67803;BME280;54601;51.378;-1.342;2023-04-22T12:51:29;99180.98;;;19.78;29.48